sensor_id;sensor_type;location;lat;lon;timestamp;P1;durP1;ratioP1;P2;durP2;ratioP2
20090;SDS011;10205;49.678;6.560;2022-07-21T00:00:14;3.50;;;3.20;;
20090;SDS011;10205;49.678;6.560;2022-07-21T00:02:42;3.28;;;2.97;;
20090;SDS011;10205;49.678;6.560;2022-07-21T00:05:11;3.00;;;2.80;;
20090;SDS011;10205;49.678;6.560;2022-07-21T00:07:39;3.55;;;3.25;;
20090;SDS011;10205;49.678;6.560;2022-07-21T00:10:06;3.50;;;3.00;;
20090;SDS011;10205;49.678;6.560;2022-07-21T00:12:34;3.25;;;2.97;;
20090;SDS011;10205;49.678;6.560;2022-07-21T00:15:02;2.95;;;2.60;;
20090;SDS011;10205;49.678;6.560;2022-07-21T00:17:31;3.10;;;2.90;;
20090;SDS011;10205;49.678;6.560;2022-07-21T00:19:59;3.20;;;2.90;;
20090;SDS011;10205;49.678;6.560;2022-07-21T00:22:28;3.45;;;3.10;;
20090;SDS011;10205;49.678;6.560;2022-07-21T00:24:55;2.95;;;2.70;;
20090;SDS011;10205;49.678;6.560;2022-07-21T00:27:23;3.08;;;2.78;;
20090;SDS011;10205;49.678;6.560;2022-07-21T00:29:51;3.30;;;2.80;;
20090;SDS011;10205;49.678;6.560;2022-07-21T00:32:18;2.72;;;2.50;;
20090;SDS011;10205;49.678;6.560;2022-07-21T00:34:45;3.38;;;3.08;;
20090;SDS011;10205;49.678;6.560;2022-07-21T00:37:13;3.70;;;3.10;;
20090;SDS011;10205;49.678;6.560;2022-07-21T00:39:41;3.45;;;2.70;;
20090;SDS011;10205;49.678;6.560;2022-07-21T00:42:18;3.20;;;2.90;;
20090;SDS011;10205;49.678;6.560;2022-07-21T00:44:47;3.47;;;2.67;;
20090;SDS011;10205;49.678;6.560;2022-07-21T00:47:15;3.03;;;2.70;;
20090;SDS011;10205;49.678;6.560;2022-07-21T00:49:45;3.40;;;3.17;;
20090;SDS011;10205;49.678;6.560;2022-07-21T00:52:12;3.10;;;2.72;;
20090;SDS011;10205;49.678;6.560;2022-07-21T00:54:40;3.20;;;3.00;;
20090;SDS011;10205;49.678;6.560;2022-07-21T00:57:09;3.10;;;2.72;;
20090;SDS011;10205;49.678;6.560;2022-07-21T00:59:37;3.38;;;2.55;;
20090;SDS011;10205;49.678;6.560;2022-07-21T01:02:05;3.13;;;2.85;;
20090;SDS011;10205;49.678;6.560;2022-07-21T01:04:33;3.67;;;2.85;;
20090;SDS011;10205;49.678;6.560;2022-07-21T01:07:00;3.17;;;2.88;;
20090;SDS011;10205;49.678;6.560;2022-07-21T01:09:31;2.92;;;2.65;;
20090;SDS011;10205;49.678;6.560;2022-07-21T01:12:00;3.53;;;3.22;;
20090;SDS011;10205;49.678;6.560;2022-07-21T01:14:29;3.10;;;2.80;;
20090;SDS011;10205;49.678;6.560;2022-07-21T01:16:57;3.85;;;3.55;;
20090;SDS011;10205;49.678;6.560;2022-07-21T01:19:24;3.40;;;3.10;;
20090;SDS011;10205;49.678;6.560;2022-07-21T01:21:53;4.00;;;3.60;;
20090;SDS011;10205;49.678;6.560;2022-07-21T01:24:20;2.90;;;2.70;;
20090;SDS011;10205;49.678;6.560;2022-07-21T01:26:48;3.85;;;3.55;;
20090;SDS011;10205;49.678;6.560;2022-07-21T01:29:19;3.00;;;2.80;;
20090;SDS011;10205;49.678;6.560;2022-07-21T01:31:48;3.95;;;3.65;;
20090;SDS011;10205;49.678;6.560;2022-07-21T01:34:17;3.25;;;2.95;;
20090;SDS011;10205;49.678;6.560;2022-07-21T01:36:45;3.40;;;3.10;;
20090;SDS011;10205;49.678;6.560;2022-07-21T01:39:14;4.25;;;3.50;;
20090;SDS011;10205;49.678;6.560;2022-07-21T01:41:59;3.70;;;3.40;;
20090;SDS011;10205;49.678;6.560;2022-07-21T01:44:27;3.30;;;3.00;;
20090;SDS011;10205;49.678;6.560;2022-07-21T01:46:54;3.33;;;3.03;;
20090;SDS011;10205;49.678;6.560;2022-07-21T01:49:21;3.35;;;3.05;;
20090;SDS011;10205;49.678;6.560;2022-07-21T01:51:49;3.65;;;3.35;;
20090;SDS011;10205;49.678;6.560;2022-07-21T01:54:18;4.28;;;3.38;;
20090;SDS011;10205;49.678;6.560;2022-07-21T01:56:45;3.30;;;3.00;;
20090;SDS011;10205;49.678;6.560;2022-07-21T01:59:12;3.42;;;3.08;;
20090;SDS011;10205;49.678;6.560;2022-07-21T02:01:40;3.47;;;3.17;;
20090;SDS011;10205;49.678;6.560;2022-07-21T02:04:07;4.00;;;3.70;;
20090;SDS011;10205;49.678;6.560;2022-07-21T02:06:34;3.50;;;3.20;;
20090;SDS011;10205;49.678;6.560;2022-07-21T02:09:02;4.15;;;3.65;;
20090;SDS011;10205;49.678;6.560;2022-07-21T02:11:30;3.75;;;3.45;;
20090;SDS011;10205;49.678;6.560;2022-07-21T02:13:58;3.40;;;3.10;;
20090;SDS011;10205;49.678;6.560;2022-07-21T02:16:26;4.07;;;3.67;;
20090;SDS011;10205;49.678;6.560;2022-07-21T02:18:54;3.60;;;3.30;;
20090;SDS011;10205;49.678;6.560;2022-07-21T02:21:22;3.47;;;3.17;;
20090;SDS011;10205;49.678;6.560;2022-07-21T02:23:49;4.13;;;3.72;;
20090;SDS011;10205;49.678;6.560;2022-07-21T02:26:16;4.03;;;3.58;;
20090;SDS011;10205;49.678;6.560;2022-07-21T02:28:45;4.35;;;3.97;;
20090;SDS011;10205;49.678;6.560;2022-07-21T02:31:12;4.13;;;3.72;;
20090;SDS011;10205;49.678;6.560;2022-07-21T02:33:40;3.50;;;3.20;;
20090;SDS011;10205;49.678;6.560;2022-07-21T02:36:07;4.03;;;3.67;;
20090;SDS011;10205;49.678;6.560;2022-07-21T02:38:35;3.90;;;3.50;;
20090;SDS011;10205;49.678;6.560;2022-07-21T02:41:03;4.20;;;3.78;;
20090;SDS011;10205;49.678;6.560;2022-07-21T02:43:30;4.30;;;3.90;;
20090;SDS011;10205;49.678;6.560;2022-07-21T02:45:59;6.15;;;3.65;;
20090;SDS011;10205;49.678;6.560;2022-07-21T02:48:26;3.88;;;3.58;;
20090;SDS011;10205;49.678;6.560;2022-07-21T02:50:54;3.90;;;3.58;;
20090;SDS011;10205;49.678;6.560;2022-07-21T02:53:21;4.20;;;3.80;;
20090;SDS011;10205;49.678;6.560;2022-07-21T02:55:49;3.72;;;3.40;;
20090;SDS011;10205;49.678;6.560;2022-07-21T02:58:18;3.85;;;3.47;;
20090;SDS011;10205;49.678;6.560;2022-07-21T03:00:48;3.97;;;3.60;;
20090;SDS011;10205;49.678;6.560;2022-07-21T03:03:20;3.95;;;3.42;;
20090;SDS011;10205;49.678;6.560;2022-07-21T03:05:50;4.20;;;3.80;;
20090;SDS011;10205;49.678;6.560;2022-07-21T03:08:18;3.78;;;3.42;;
20090;SDS011;10205;49.678;6.560;2022-07-21T03:10:47;4.22;;;3.83;;
20090;SDS011;10205;49.678;6.560;2022-07-21T03:13:15;4.35;;;3.47;;
20090;SDS011;10205;49.678;6.560;2022-07-21T03:15:42;4.47;;;4.05;;
20090;SDS011;10205;49.678;6.560;2022-07-21T03:18:10;4.40;;;4.00;;
20090;SDS011;10205;49.678;6.560;2022-07-21T03:20:39;4.40;;;4.00;;
20090;SDS011;10205;49.678;6.560;2022-07-21T03:23:09;4.00;;;3.65;;
20090;SDS011;10205;49.678;6.560;2022-07-21T03:25:36;4.07;;;3.67;;
20090;SDS011;10205;49.678;6.560;2022-07-21T03:28:03;5.28;;;3.80;;
20090;SDS011;10205;49.678;6.560;2022-07-21T03:30:31;3.95;;;3.55;;
20090;SDS011;10205;49.678;6.560;2022-07-21T03:32:59;4.13;;;3.83;;
20090;SDS011;10205;49.678;6.560;2022-07-21T03:35:27;4.68;;;4.28;;
20090;SDS011;10205;49.678;6.560;2022-07-21T03:37:56;4.78;;;4.22;;
20090;SDS011;10205;49.678;6.560;2022-07-21T03:40:26;5.00;;;4.18;;
20090;SDS011;10205;49.678;6.560;2022-07-21T03:42:56;4.68;;;4.03;;
20090;SDS011;10205;49.678;6.560;2022-07-21T03:45:27;4.32;;;3.92;;
20090;SDS011;10205;49.678;6.560;2022-07-21T03:47:56;4.40;;;4.00;;
20090;SDS011;10205;49.678;6.560;2022-07-21T03:50:24;4.78;;;4.30;;
20090;SDS011;10205;49.678;6.560;2022-07-21T03:52:52;4.20;;;3.80;;
20090;SDS011;10205;49.678;6.560;2022-07-21T03:55:21;4.28;;;3.88;;
20090;SDS011;10205;49.678;6.560;2022-07-21T03:57:49;4.13;;;3.83;;
20090;SDS011;10205;49.678;6.560;2022-07-21T04:00:19;4.18;;;3.65;;
20090;SDS011;10205;49.678;6.560;2022-07-21T04:02:50;4.15;;;3.75;;
20090;SDS011;10205;49.678;6.560;2022-07-21T04:05:17;5.63;;;4.38;;
20090;SDS011;10205;49.678;6.560;2022-07-21T04:07:46;4.03;;;3.72;;
20090;SDS011;10205;49.678;6.560;2022-07-21T04:10:16;4.80;;;4.40;;
20090;SDS011;10205;49.678;6.560;2022-07-21T04:12:49;3.90;;;3.50;;
20090;SDS011;10205;49.678;6.560;2022-07-21T04:15:17;5.13;;;3.60;;
20090;SDS011;10205;49.678;6.560;2022-07-21T04:17:45;5.53;;;4.50;;
20090;SDS011;10205;49.678;6.560;2022-07-21T04:20:13;4.18;;;3.78;;
20090;SDS011;10205;49.678;6.560;2022-07-21T04:22:41;4.75;;;4.25;;
20090;SDS011;10205;49.678;6.560;2022-07-21T04:25:09;4.70;;;4.30;;
20090;SDS011;10205;49.678;6.560;2022-07-21T04:27:38;4.47;;;4.07;;
20090;SDS011;10205;49.678;6.560;2022-07-21T04:30:07;4.65;;;4.20;;
20090;SDS011;10205;49.678;6.560;2022-07-21T04:32:37;4.35;;;4.00;;
20090;SDS011;10205;49.678;6.560;2022-07-21T04:35:05;4.30;;;3.90;;
20090;SDS011;10205;49.678;6.560;2022-07-21T04:37:34;4.57;;;4.18;;
20090;SDS011;10205;49.678;6.560;2022-07-21T04:40:02;4.95;;;4.45;;
20090;SDS011;10205;49.678;6.560;2022-07-21T04:42:34;4.80;;;4.30;;
20090;SDS011;10205;49.678;6.560;2022-07-21T04:45:04;4.72;;;4.25;;
20090;SDS011;10205;49.678;6.560;2022-07-21T04:47:41;4.95;;;4.43;;
20090;SDS011;10205;49.678;6.560;2022-07-21T04:50:09;3.95;;;3.55;;
20090;SDS011;10205;49.678;6.560;2022-07-21T04:52:38;5.20;;;3.83;;
20090;SDS011;10205;49.678;6.560;2022-07-21T04:55:06;4.60;;;4.20;;
20090;SDS011;10205;49.678;6.560;2022-07-21T04:57:38;5.00;;;4.50;;
20090;SDS011;10205;49.678;6.560;2022-07-21T05:00:09;4.50;;;4.10;;
20090;SDS011;10205;49.678;6.560;2022-07-21T05:02:39;5.22;;;4.25;;
20090;SDS011;10205;49.678;6.560;2022-07-21T05:05:07;4.90;;;4.50;;
20090;SDS011;10205;49.678;6.560;2022-07-21T05:07:35;4.88;;;4.35;;
20090;SDS011;10205;49.678;6.560;2022-07-21T05:10:03;4.97;;;4.40;;
20090;SDS011;10205;49.678;6.560;2022-07-21T05:12:31;4.30;;;3.90;;
20090;SDS011;10205;49.678;6.560;2022-07-21T05:14:59;5.60;;;4.97;;
20090;SDS011;10205;49.678;6.560;2022-07-21T05:17:27;4.50;;;4.10;;
20090;SDS011;10205;49.678;6.560;2022-07-21T05:19:54;4.07;;;3.78;;
20090;SDS011;10205;49.678;6.560;2022-07-21T05:22:21;4.35;;;3.95;;
20090;SDS011;10205;49.678;6.560;2022-07-21T05:24:49;4.63;;;4.22;;
20090;SDS011;10205;49.678;6.560;2022-07-21T05:27:16;4.60;;;4.20;;
20090;SDS011;10205;49.678;6.560;2022-07-21T05:29:43;4.30;;;3.75;;
20090;SDS011;10205;49.678;6.560;2022-07-21T05:32:10;4.93;;;4.40;;
20090;SDS011;10205;49.678;6.560;2022-07-21T05:34:39;4.45;;;4.05;;
20090;SDS011;10205;49.678;6.560;2022-07-21T05:37:06;5.32;;;4.03;;
20090;SDS011;10205;49.678;6.560;2022-07-21T05:39:33;6.25;;;5.10;;
20090;SDS011;10205;49.678;6.560;2022-07-21T05:42:00;4.70;;;4.30;;
20090;SDS011;10205;49.678;6.560;2022-07-21T05:44:28;4.60;;;4.20;;
20090;SDS011;10205;49.678;6.560;2022-07-21T05:46:55;4.50;;;4.10;;
20090;SDS011;10205;49.678;6.560;2022-07-21T05:49:22;5.25;;;4.75;;
20090;SDS011;10205;49.678;6.560;2022-07-21T05:51:51;5.65;;;4.45;;
20090;SDS011;10205;49.678;6.560;2022-07-21T05:54:18;5.07;;;4.57;;
20090;SDS011;10205;49.678;6.560;2022-07-21T05:56:45;4.63;;;4.22;;
20090;SDS011;10205;49.678;6.560;2022-07-21T05:59:12;5.43;;;4.43;;
20090;SDS011;10205;49.678;6.560;2022-07-21T06:01:39;4.63;;;4.22;;
20090;SDS011;10205;49.678;6.560;2022-07-21T06:04:06;6.18;;;5.57;;
20090;SDS011;10205;49.678;6.560;2022-07-21T06:06:34;5.43;;;4.40;;
20090;SDS011;10205;49.678;6.560;2022-07-21T06:09:02;5.00;;;4.50;;
20090;SDS011;10205;49.678;6.560;2022-07-21T06:11:29;5.38;;;4.70;;
20090;SDS011;10205;49.678;6.560;2022-07-21T06:13:56;6.03;;;5.45;;
20090;SDS011;10205;49.678;6.560;2022-07-21T06:16:24;5.78;;;4.43;;
20090;SDS011;10205;49.678;6.560;2022-07-21T06:18:51;5.70;;;4.80;;
20090;SDS011;10205;49.678;6.560;2022-07-21T06:21:18;6.50;;;5.20;;
20090;SDS011;10205;49.678;6.560;2022-07-21T06:23:45;6.07;;;4.75;;
20090;SDS011;10205;49.678;6.560;2022-07-21T06:26:13;5.60;;;5.10;;
20090;SDS011;10205;49.678;6.560;2022-07-21T06:28:41;5.30;;;4.80;;
20090;SDS011;10205;49.678;6.560;2022-07-21T06:31:08;5.78;;;5.15;;
20090;SDS011;10205;49.678;6.560;2022-07-21T06:33:35;6.43;;;5.15;;
20090;SDS011;10205;49.678;6.560;2022-07-21T06:36:02;6.93;;;5.55;;
20090;SDS011;10205;49.678;6.560;2022-07-21T06:38:30;12.45;;;5.68;;
20090;SDS011;10205;49.678;6.560;2022-07-21T06:40:57;6.03;;;5.45;;
20090;SDS011;10205;49.678;6.560;2022-07-21T06:43:26;7.50;;;5.80;;
20090;SDS011;10205;49.678;6.560;2022-07-21T06:45:53;5.80;;;5.22;;
20090;SDS011;10205;49.678;6.560;2022-07-21T06:48:21;6.25;;;5.07;;
20090;SDS011;10205;49.678;6.560;2022-07-21T06:50:48;7.32;;;5.57;;
20090;SDS011;10205;49.678;6.560;2022-07-21T06:53:16;5.88;;;5.25;;
20090;SDS011;10205;49.678;6.560;2022-07-21T06:55:43;6.38;;;5.40;;
20090;SDS011;10205;49.678;6.560;2022-07-21T06:58:11;5.68;;;5.10;;
20090;SDS011;10205;49.678;6.560;2022-07-21T07:00:43;5.30;;;4.80;;
20090;SDS011;10205;49.678;6.560;2022-07-21T07:03:12;6.35;;;5.20;;
20090;SDS011;10205;49.678;6.560;2022-07-21T07:05:41;5.70;;;5.03;;
20090;SDS011;10205;49.678;6.560;2022-07-21T07:08:10;4.38;;;3.92;;
20090;SDS011;10205;49.678;6.560;2022-07-21T07:10:37;6.55;;;5.25;;
20090;SDS011;10205;49.678;6.560;2022-07-21T07:13:05;6.85;;;5.13;;
20090;SDS011;10205;49.678;6.560;2022-07-21T07:15:33;5.20;;;4.65;;
20090;SDS011;10205;49.678;6.560;2022-07-21T07:18:02;5.22;;;4.72;;
20090;SDS011;10205;49.678;6.560;2022-07-21T07:20:29;5.55;;;4.95;;
20090;SDS011;10205;49.678;6.560;2022-07-21T07:22:56;6.85;;;5.10;;
20090;SDS011;10205;49.678;6.560;2022-07-21T07:25:23;5.40;;;4.90;;
20090;SDS011;10205;49.678;6.560;2022-07-21T07:27:51;5.13;;;4.63;;
20090;SDS011;10205;49.678;6.560;2022-07-21T07:30:19;6.63;;;4.90;;
20090;SDS011;10205;49.678;6.560;2022-07-21T07:32:46;6.82;;;5.07;;
20090;SDS011;10205;49.678;6.560;2022-07-21T07:35:15;6.72;;;5.22;;
20090;SDS011;10205;49.678;6.560;2022-07-21T07:37:44;6.70;;;4.60;;
20090;SDS011;10205;49.678;6.560;2022-07-21T07:40:13;5.05;;;4.55;;
20090;SDS011;10205;49.678;6.560;2022-07-21T07:42:43;5.10;;;4.60;;
20090;SDS011;10205;49.678;6.560;2022-07-21T07:45:10;4.93;;;4.30;;
20090;SDS011;10205;49.678;6.560;2022-07-21T07:47:39;5.95;;;4.78;;
20090;SDS011;10205;49.678;6.560;2022-07-21T07:50:08;4.97;;;4.32;;
20090;SDS011;10205;49.678;6.560;2022-07-21T07:52:39;4.93;;;4.22;;
20090;SDS011;10205;49.678;6.560;2022-07-21T07:55:08;5.80;;;3.92;;
20090;SDS011;10205;49.678;6.560;2022-07-21T07:57:37;5.68;;;4.53;;
20090;SDS011;10205;49.678;6.560;2022-07-21T08:00:06;4.82;;;4.32;;
20090;SDS011;10205;49.678;6.560;2022-07-21T08:02:36;5.00;;;4.45;;
20090;SDS011;10205;49.678;6.560;2022-07-21T08:05:04;5.63;;;4.57;;
20090;SDS011;10205;49.678;6.560;2022-07-21T08:07:33;4.78;;;4.38;;
20090;SDS011;10205;49.678;6.560;2022-07-21T08:10:04;4.72;;;4.03;;
20090;SDS011;10205;49.678;6.560;2022-07-21T08:12:32;4.43;;;4.03;;
20090;SDS011;10205;49.678;6.560;2022-07-21T08:15:02;4.22;;;3.83;;
20090;SDS011;10205;49.678;6.560;2022-07-21T08:17:30;9.02;;;4.20;;
20090;SDS011;10205;49.678;6.560;2022-07-21T08:19:58;5.00;;;3.78;;
20090;SDS011;10205;49.678;6.560;2022-07-21T08:22:25;4.88;;;4.38;;
20090;SDS011;10205;49.678;6.560;2022-07-21T08:24:52;4.82;;;4.00;;
20090;SDS011;10205;49.678;6.560;2022-07-21T08:27:21;6.13;;;3.90;;
20090;SDS011;10205;49.678;6.560;2022-07-21T08:29:48;4.65;;;3.78;;
20090;SDS011;10205;49.678;6.560;2022-07-21T08:32:17;5.18;;;4.10;;
20090;SDS011;10205;49.678;6.560;2022-07-21T08:34:45;4.75;;;4.35;;
20090;SDS011;10205;49.678;6.560;2022-07-21T08:37:12;4.80;;;4.20;;
20090;SDS011;10205;49.678;6.560;2022-07-21T08:39:40;5.00;;;4.35;;
20090;SDS011;10205;49.678;6.560;2022-07-21T08:42:08;5.07;;;4.05;;
20090;SDS011;10205;49.678;6.560;2022-07-21T08:44:39;4.47;;;4.07;;
20090;SDS011;10205;49.678;6.560;2022-07-21T08:47:07;4.40;;;4.00;;
20090;SDS011;10205;49.678;6.560;2022-07-21T08:49:34;5.15;;;4.63;;
20090;SDS011;10205;49.678;6.560;2022-07-21T08:52:02;5.13;;;4.60;;
20090;SDS011;10205;49.678;6.560;2022-07-21T08:54:32;6.53;;;5.03;;
20090;SDS011;10205;49.678;6.560;2022-07-21T08:57:00;5.05;;;3.88;;
20090;SDS011;10205;49.678;6.560;2022-07-21T08:59:27;5.35;;;4.30;;
20090;SDS011;10205;49.678;6.560;2022-07-21T09:01:55;4.65;;;3.97;;
20090;SDS011;10205;49.678;6.560;2022-07-21T09:04:24;9.70;;;5.25;;
20090;SDS011;10205;49.678;6.560;2022-07-21T09:06:55;5.10;;;4.60;;
20090;SDS011;10205;49.678;6.560;2022-07-21T09:09:25;4.57;;;4.18;;
20090;SDS011;10205;49.678;6.560;2022-07-21T09:11:55;5.13;;;4.20;;
20090;SDS011;10205;49.678;6.560;2022-07-21T09:14:23;6.18;;;4.68;;
20090;SDS011;10205;49.678;6.560;2022-07-21T09:16:53;4.80;;;4.35;;
20090;SDS011;10205;49.678;6.560;2022-07-21T09:19:25;4.63;;;4.20;;
20090;SDS011;10205;49.678;6.560;2022-07-21T09:21:57;4.82;;;4.35;;
20090;SDS011;10205;49.678;6.560;2022-07-21T09:24:27;5.55;;;4.47;;
20090;SDS011;10205;49.678;6.560;2022-07-21T09:27:00;4.68;;;4.00;;
20090;SDS011;10205;49.678;6.560;2022-07-21T09:29:34;4.63;;;4.22;;
20090;SDS011;10205;49.678;6.560;2022-07-21T09:32:22;5.10;;;4.60;;
20090;SDS011;10205;49.678;6.560;2022-07-21T09:34:52;4.88;;;3.33;;
20090;SDS011;10205;49.678;6.560;2022-07-21T09:37:24;5.45;;;4.30;;
20090;SDS011;10205;49.678;6.560;2022-07-21T09:39:52;4.82;;;4.25;;
20090;SDS011;10205;49.678;6.560;2022-07-21T09:42:22;5.50;;;3.97;;
20090;SDS011;10205;49.678;6.560;2022-07-21T09:44:51;3.88;;;3.47;;
20090;SDS011;10205;49.678;6.560;2022-07-21T09:47:24;4.10;;;3.70;;
20090;SDS011;10205;49.678;6.560;2022-07-21T09:49:54;6.40;;;4.35;;
20090;SDS011;10205;49.678;6.560;2022-07-21T09:52:24;6.03;;;4.57;;
20090;SDS011;10205;49.678;6.560;2022-07-21T09:54:55;5.55;;;4.25;;
20090;SDS011;10205;49.678;6.560;2022-07-21T09:57:24;5.03;;;4.35;;
20090;SDS011;10205;49.678;6.560;2022-07-21T09:59:53;4.70;;;4.20;;
20090;SDS011;10205;49.678;6.560;2022-07-21T10:02:21;4.75;;;4.35;;
20090;SDS011;10205;49.678;6.560;2022-07-21T10:04:56;5.55;;;4.13;;
20090;SDS011;10205;49.678;6.560;2022-07-21T10:07:25;6.25;;;4.25;;
20090;SDS011;10205;49.678;6.560;2022-07-21T10:09:55;5.47;;;4.03;;
20090;SDS011;10205;49.678;6.560;2022-07-21T10:12:25;4.95;;;4.45;;
20090;SDS011;10205;49.678;6.560;2022-07-21T10:14:53;4.10;;;3.78;;
20090;SDS011;10205;49.678;6.560;2022-07-21T10:17:23;5.22;;;4.43;;
20090;SDS011;10205;49.678;6.560;2022-07-21T10:19:56;6.82;;;4.13;;
20090;SDS011;10205;49.678;6.560;2022-07-21T10:22:36;4.97;;;4.00;;
20090;SDS011;10205;49.678;6.560;2022-07-21T10:25:23;5.95;;;4.03;;
20090;SDS011;10205;49.678;6.560;2022-07-21T10:30:43;4.22;;;3.80;;
20090;SDS011;10205;49.678;6.560;2022-07-21T10:33:14;5.15;;;3.95;;
20090;SDS011;10205;49.678;6.560;2022-07-21T10:35:44;4.75;;;4.32;;
20090;SDS011;10205;49.678;6.560;2022-07-21T10:38:25;4.35;;;3.85;;
20090;SDS011;10205;49.678;6.560;2022-07-21T10:40:54;4.07;;;3.67;;
20090;SDS011;10205;49.678;6.560;2022-07-21T10:43:38;6.53;;;4.80;;
20090;SDS011;10205;49.678;6.560;2022-07-21T10:49:07;4.72;;;4.25;;
20090;SDS011;10205;49.678;6.560;2022-07-21T10:51:36;6.03;;;4.38;;
20090;SDS011;10205;49.678;6.560;2022-07-21T10:54:23;4.70;;;4.30;;
20090;SDS011;10205;49.678;6.560;2022-07-21T11:03:02;7.82;;;4.40;;
20090;SDS011;10205;49.678;6.560;2022-07-21T11:08:52;6.70;;;4.45;;
20090;SDS011;10205;49.678;6.560;2022-07-21T11:11:34;5.32;;;4.43;;
20090;SDS011;10205;49.678;6.560;2022-07-21T11:14:04;6.38;;;4.43;;
20090;SDS011;10205;49.678;6.560;2022-07-21T11:19:51;7.38;;;4.63;;
20090;SDS011;10205;49.678;6.560;2022-07-21T11:22:20;5.45;;;4.40;;
20090;SDS011;10205;49.678;6.560;2022-07-21T11:24:51;7.25;;;4.78;;
20090;SDS011;10205;49.678;6.560;2022-07-21T11:27:23;6.43;;;4.90;;
20090;SDS011;10205;49.678;6.560;2022-07-21T11:29:57;5.15;;;4.65;;
20090;SDS011;10205;49.678;6.560;2022-07-21T11:32:25;5.05;;;4.50;;
20090;SDS011;10205;49.678;6.560;2022-07-21T11:34:56;5.15;;;4.65;;
20090;SDS011;10205;49.678;6.560;2022-07-21T11:37:28;4.97;;;4.18;;
20090;SDS011;10205;49.678;6.560;2022-07-21T11:39:58;6.57;;;5.13;;
20090;SDS011;10205;49.678;6.560;2022-07-21T11:42:26;5.55;;;5.05;;
20090;SDS011;10205;49.678;6.560;2022-07-21T11:44:55;6.05;;;5.07;;
20090;SDS011;10205;49.678;6.560;2022-07-21T11:47:23;5.03;;;4.50;;
20090;SDS011;10205;49.678;6.560;2022-07-21T11:49:51;5.10;;;4.60;;
20090;SDS011;10205;49.678;6.560;2022-07-21T11:52:24;10.27;;;5.43;;
20090;SDS011;10205;49.678;6.560;2022-07-21T11:54:55;7.65;;;4.90;;
20090;SDS011;10205;49.678;6.560;2022-07-21T11:57:24;6.45;;;4.85;;
20090;SDS011;10205;49.678;6.560;2022-07-21T11:59:53;5.07;;;4.40;;
20090;SDS011;10205;49.678;6.560;2022-07-21T12:02:24;4.82;;;4.20;;
20090;SDS011;10205;49.678;6.560;2022-07-21T12:04:53;6.65;;;4.75;;
20090;SDS011;10205;49.678;6.560;2022-07-21T12:07:24;5.45;;;4.20;;
20090;SDS011;10205;49.678;6.560;2022-07-21T12:09:56;5.75;;;4.90;;
20090;SDS011;10205;49.678;6.560;2022-07-21T12:12:27;5.28;;;4.78;;
20090;SDS011;10205;49.678;6.560;2022-07-21T12:14:57;4.53;;;4.13;;
20090;SDS011;10205;49.678;6.560;2022-07-21T12:17:37;5.25;;;4.40;;
20090;SDS011;10205;49.678;6.560;2022-07-21T12:20:07;4.45;;;4.03;;
20090;SDS011;10205;49.678;6.560;2022-07-21T12:22:36;4.93;;;4.43;;
20090;SDS011;10205;49.678;6.560;2022-07-21T12:25:09;4.80;;;4.40;;
20090;SDS011;10205;49.678;6.560;2022-07-21T12:27:38;5.95;;;4.45;;
20090;SDS011;10205;49.678;6.560;2022-07-21T12:30:08;4.40;;;4.00;;
20090;SDS011;10205;49.678;6.560;2022-07-21T12:32:54;5.60;;;4.07;;
20090;SDS011;10205;49.678;6.560;2022-07-21T12:35:34;6.07;;;3.80;;
20090;SDS011;10205;49.678;6.560;2022-07-21T12:38:06;4.30;;;3.90;;
20090;SDS011;10205;49.678;6.560;2022-07-21T12:40:38;4.93;;;3.85;;
20090;SDS011;10205;49.678;6.560;2022-07-21T12:43:08;4.70;;;4.00;;
20090;SDS011;10205;49.678;6.560;2022-07-21T12:45:49;5.43;;;3.90;;
20090;SDS011;10205;49.678;6.560;2022-07-21T12:48:21;4.70;;;4.03;;
20090;SDS011;10205;49.678;6.560;2022-07-21T12:50:57;4.07;;;3.67;;
20090;SDS011;10205;49.678;6.560;2022-07-21T12:53:32;6.90;;;3.80;;
20090;SDS011;10205;49.678;6.560;2022-07-21T12:56:03;4.40;;;3.90;;
20090;SDS011;10205;49.678;6.560;2022-07-21T12:58:31;4.47;;;4.00;;
20090;SDS011;10205;49.678;6.560;2022-07-21T13:00:59;4.78;;;3.42;;
20090;SDS011;10205;49.678;6.560;2022-07-21T13:03:27;6.18;;;4.32;;
20090;SDS011;10205;49.678;6.560;2022-07-21T13:05:55;4.40;;;4.00;;
20090;SDS011;10205;49.678;6.560;2022-07-21T13:08:23;5.78;;;3.80;;
20090;SDS011;10205;49.678;6.560;2022-07-21T13:10:50;4.80;;;4.40;;
20090;SDS011;10205;49.678;6.560;2022-07-21T13:13:19;7.00;;;4.13;;
20090;SDS011;10205;49.678;6.560;2022-07-21T13:15:46;4.75;;;4.30;;
20090;SDS011;10205;49.678;6.560;2022-07-21T13:18:13;4.28;;;3.88;;
20090;SDS011;10205;49.678;6.560;2022-07-21T13:20:40;4.20;;;3.80;;
20090;SDS011;10205;49.678;6.560;2022-07-21T13:23:08;4.13;;;3.72;;
20090;SDS011;10205;49.678;6.560;2022-07-21T13:25:35;4.90;;;4.35;;
20090;SDS011;10205;49.678;6.560;2022-07-21T13:28:03;6.13;;;4.63;;
20090;SDS011;10205;49.678;6.560;2022-07-21T13:30:32;4.82;;;4.43;;
20090;SDS011;10205;49.678;6.560;2022-07-21T13:32:59;3.90;;;3.60;;
20090;SDS011;10205;49.678;6.560;2022-07-21T13:35:26;4.57;;;4.18;;
20090;SDS011;10205;49.678;6.560;2022-07-21T13:37:54;5.45;;;4.43;;
20090;SDS011;10205;49.678;6.560;2022-07-21T13:40:22;4.93;;;4.28;;
20090;SDS011;10205;49.678;6.560;2022-07-21T13:42:49;4.63;;;4.05;;
20090;SDS011;10205;49.678;6.560;2022-07-21T13:45:16;5.68;;;4.60;;
20090;SDS011;10205;49.678;6.560;2022-07-21T13:47:45;4.85;;;4.45;;
20090;SDS011;10205;49.678;6.560;2022-07-21T13:50:12;4.40;;;4.00;;
20090;SDS011;10205;49.678;6.560;2022-07-21T13:52:39;4.63;;;4.22;;
20090;SDS011;10205;49.678;6.560;2022-07-21T13:55:07;5.43;;;4.60;;
20090;SDS011;10205;49.678;6.560;2022-07-21T13:57:36;4.78;;;4.38;;
20090;SDS011;10205;49.678;6.560;2022-07-21T14:00:04;5.85;;;4.60;;
20090;SDS011;10205;49.678;6.560;2022-07-21T14:02:35;5.63;;;4.50;;
20090;SDS011;10205;49.678;6.560;2022-07-21T14:05:04;4.57;;;4.13;;
20090;SDS011;10205;49.678;6.560;2022-07-21T14:07:32;4.68;;;4.22;;
20090;SDS011;10205;49.678;6.560;2022-07-21T14:09:59;5.35;;;4.85;;
20090;SDS011;10205;49.678;6.560;2022-07-21T14:12:26;5.10;;;4.65;;
20090;SDS011;10205;49.678;6.560;2022-07-21T14:14:53;6.00;;;4.80;;
20090;SDS011;10205;49.678;6.560;2022-07-21T14:17:20;4.53;;;4.03;;
20090;SDS011;10205;49.678;6.560;2022-07-21T14:19:47;5.03;;;4.53;;
20090;SDS011;10205;49.678;6.560;2022-07-21T14:22:16;5.80;;;4.82;;
20090;SDS011;10205;49.678;6.560;2022-07-21T14:24:46;5.13;;;4.40;;
20090;SDS011;10205;49.678;6.560;2022-07-21T14:27:31;4.78;;;4.28;;
20090;SDS011;10205;49.678;6.560;2022-07-21T14:29:58;4.90;;;4.30;;
20090;SDS011;10205;49.678;6.560;2022-07-21T14:32:26;5.55;;;4.35;;
20090;SDS011;10205;49.678;6.560;2022-07-21T14:34:53;4.72;;;4.28;;
20090;SDS011;10205;49.678;6.560;2022-07-21T14:37:22;5.53;;;4.40;;
20090;SDS011;10205;49.678;6.560;2022-07-21T14:39:49;4.53;;;4.13;;
20090;SDS011;10205;49.678;6.560;2022-07-21T14:42:16;4.40;;;4.00;;
20090;SDS011;10205;49.678;6.560;2022-07-21T14:44:44;5.70;;;4.65;;
20090;SDS011;10205;49.678;6.560;2022-07-21T14:47:11;5.28;;;4.75;;
20090;SDS011;10205;49.678;6.560;2022-07-21T14:49:39;4.75;;;4.35;;
20090;SDS011;10205;49.678;6.560;2022-07-21T14:52:06;5.07;;;4.68;;
20090;SDS011;10205;49.678;6.560;2022-07-21T14:54:35;4.82;;;4.20;;
20090;SDS011;10205;49.678;6.560;2022-07-21T14:57:03;5.10;;;4.60;;
20090;SDS011;10205;49.678;6.560;2022-07-21T14:59:31;4.60;;;4.18;;
20090;SDS011;10205;49.678;6.560;2022-07-21T15:01:58;8.65;;;4.75;;
20090;SDS011;10205;49.678;6.560;2022-07-21T15:04:25;5.07;;;4.55;;
20090;SDS011;10205;49.678;6.560;2022-07-21T15:06:52;5.20;;;4.70;;
20090;SDS011;10205;49.678;6.560;2022-07-21T15:09:20;4.85;;;4.43;;
20090;SDS011;10205;49.678;6.560;2022-07-21T15:11:48;5.80;;;4.80;;
20090;SDS011;10205;49.678;6.560;2022-07-21T15:14:15;4.82;;;4.43;;
20090;SDS011;10205;49.678;6.560;2022-07-21T15:16:43;5.22;;;4.82;;